sensor_id;sensor_type;location;lat;lon;timestamp;temperature;humidity
9943;DHT22;5010;45.080;7.634;2024-02-26T00:05:23;6.50;1.00
9943;DHT22;5010;45.080;7.634;2024-02-26T00:07:58;6.50;1.00
9943;DHT22;5010;45.080;7.634;2024-02-26T00:10:29;6.40;1.00
9943;DHT22;5010;45.080;7.634;2024-02-26T00:13:00;6.40;1.00
9943;DHT22;5010;45.080;7.634;2024-02-26T00:15:32;6.40;1.00
9943;DHT22;5010;45.080;7.634;2024-02-26T00:18:01;6.30;1.00
9943;DHT22;5010;45.080;7.634;2024-02-26T00:20:31;6.20;1.00
9943;DHT22;5010;45.080;7.634;2024-02-26T00:22:59;6.20;1.00
9943;DHT22;5010;45.080;7.634;2024-02-26T00:25:27;6.10;1.00
9943;DHT22;5010;45.080;7.634;2024-02-26T00:27:55;6.10;1.00
9943;DHT22;5010;45.080;7.634;2024-02-26T00:30:23;6.00;1.00
9943;DHT22;5010;45.080;7.634;2024-02-26T00:32:51;6.00;1.00
9943;DHT22;5010;45.080;7.634;2024-02-26T00:35:18;6.10;1.00
9943;DHT22;5010;45.080;7.634;2024-02-26T00:37:48;6.10;1.00
9943;DHT22;5010;45.080;7.634;2024-02-26T00:40:15;6.10;1.00
9943;DHT22;5010;45.080;7.634;2024-02-26T00:42:43;6.00;1.00
9943;DHT22;5010;45.080;7.634;2024-02-26T00:45:12;6.00;1.00
9943;DHT22;5010;45.080;7.634;2024-02-26T00:47:39;6.00;1.00
9943;DHT22;5010;45.080;7.634;2024-02-26T00:50:08;5.90;1.00
9943;DHT22;5010;45.080;7.634;2024-02-26T00:52:35;5.90;1.00
9943;DHT22;5010;45.080;7.634;2024-02-26T00:55:06;5.90;1.00
9943;DHT22;5010;45.080;7.634;2024-02-26T00:57:34;5.90;1.00
9943;DHT22;5010;45.080;7.634;2024-02-26T01:00:01;5.90;1.00
9943;DHT22;5010;45.080;7.634;2024-02-26T01:02:33;5.90;1.00
9943;DHT22;5010;45.080;7.634;2024-02-26T01:05:01;5.80;1.00
9943;DHT22;5010;45.080;7.634;2024-02-26T01:07:30;5.80;1.00
9943;DHT22;5010;45.080;7.634;2024-02-26T01:10:04;5.80;1.00
9943;DHT22;5010;45.080;7.634;2024-02-26T01:12:32;5.90;1.00
9943;DHT22;5010;45.080;7.634;2024-02-26T01:15:00;5.90;1.00
9943;DHT22;5010;45.080;7.634;2024-02-26T01:17:29;5.90;1.00
9943;DHT22;5010;45.080;7.634;2024-02-26T01:19:57;5.90;1.00
9943;DHT22;5010;45.080;7.634;2024-02-26T01:22:25;5.90;1.00
9943;DHT22;5010;45.080;7.634;2024-02-26T01:24:53;6.00;1.00
9943;DHT22;5010;45.080;7.634;2024-02-26T01:27:24;6.00;1.00
9943;DHT22;5010;45.080;7.634;2024-02-26T01:29:53;6.00;1.00
9943;DHT22;5010;45.080;7.634;2024-02-26T01:32:21;6.00;1.00
9943;DHT22;5010;45.080;7.634;2024-02-26T01:34:50;6.00;1.00
9943;DHT22;5010;45.080;7.634;2024-02-26T01:37:17;6.00;1.00
9943;DHT22;5010;45.080;7.634;2024-02-26T01:39:45;6.00;1.00
9943;DHT22;5010;45.080;7.634;2024-02-26T01:42:13;5.90;1.00
9943;DHT22;5010;45.080;7.634;2024-02-26T01:44:42;5.90;1.00
9943;DHT22;5010;45.080;7.634;2024-02-26T01:47:12;5.80;1.00
9943;DHT22;5010;45.080;7.634;2024-02-26T01:49:41;5.90;1.00
9943;DHT22;5010;45.080;7.634;2024-02-26T01:52:09;5.90;1.00
9943;DHT22;5010;45.080;7.634;2024-02-26T01:54:38;5.90;1.00
9943;DHT22;5010;45.080;7.634;2024-02-26T01:57:07;5.90;1.00
9943;DHT22;5010;45.080;7.634;2024-02-26T01:59:36;6.00;1.00
9943;DHT22;5010;45.080;7.634;2024-02-26T02:02:07;5.90;1.00
9943;DHT22;5010;45.080;7.634;2024-02-26T02:04:36;5.90;1.00
9943;DHT22;5010;45.080;7.634;2024-02-26T02:07:05;6.00;1.00
9943;DHT22;5010;45.080;7.634;2024-02-26T02:09:33;6.00;1.00
9943;DHT22;5010;45.080;7.634;2024-02-26T02:12:00;5.90;1.00
9943;DHT22;5010;45.080;7.634;2024-02-26T02:14:28;5.90;1.00
9943;DHT22;5010;45.080;7.634;2024-02-26T02:16:56;5.80;1.00
9943;DHT22;5010;45.080;7.634;2024-02-26T02:19:25;5.80;1.00
9943;DHT22;5010;45.080;7.634;2024-02-26T02:21:54;5.70;1.00
9943;DHT22;5010;45.080;7.634;2024-02-26T02:24:22;5.60;1.00
9943;DHT22;5010;45.080;7.634;2024-02-26T02:26:50;5.60;1.00
9943;DHT22;5010;45.080;7.634;2024-02-26T02:29:18;5.60;1.00
9943;DHT22;5010;45.080;7.634;2024-02-26T02:31:46;5.70;1.00
9943;DHT22;5010;45.080;7.634;2024-02-26T02:34:14;5.80;1.00
9943;DHT22;5010;45.080;7.634;2024-02-26T02:36:54;5.80;1.00
9943;DHT22;5010;45.080;7.634;2024-02-26T02:39:22;5.90;1.00
9943;DHT22;5010;45.080;7.634;2024-02-26T02:41:49;5.90;1.00
9943;DHT22;5010;45.080;7.634;2024-02-26T02:44:17;5.90;1.00
9943;DHT22;5010;45.080;7.634;2024-02-26T02:46:45;6.00;1.00
9943;DHT22;5010;45.080;7.634;2024-02-26T02:49:13;6.00;1.00
9943;DHT22;5010;45.080;7.634;2024-02-26T02:51:40;5.90;1.00
9943;DHT22;5010;45.080;7.634;2024-02-26T02:54:10;6.00;1.00
9943;DHT22;5010;45.080;7.634;2024-02-26T02:56:37;6.00;1.00
9943;DHT22;5010;45.080;7.634;2024-02-26T02:59:05;5.90;1.00
9943;DHT22;5010;45.080;7.634;2024-02-26T03:01:33;5.90;1.00
9943;DHT22;5010;45.080;7.634;2024-02-26T03:04:01;5.80;1.00
9943;DHT22;5010;45.080;7.634;2024-02-26T03:06:29;5.80;1.00
9943;DHT22;5010;45.080;7.634;2024-02-26T03:08:56;5.80;1.00
9943;DHT22;5010;45.080;7.634;2024-02-26T03:11:26;5.90;1.00
9943;DHT22;5010;45.080;7.634;2024-02-26T03:13:53;5.90;1.00
9943;DHT22;5010;45.080;7.634;2024-02-26T03:16:21;5.90;1.00
9943;DHT22;5010;45.080;7.634;2024-02-26T03:18:49;5.90;1.00
9943;DHT22;5010;45.080;7.634;2024-02-26T03:21:17;5.90;1.00
9943;DHT22;5010;45.080;7.634;2024-02-26T03:23:45;5.80;1.00
9943;DHT22;5010;45.080;7.634;2024-02-26T03:26:13;5.80;1.00
9943;DHT22;5010;45.080;7.634;2024-02-26T03:28:42;5.80;1.00
9943;DHT22;5010;45.080;7.634;2024-02-26T03:31:10;5.90;1.00
9943;DHT22;5010;45.080;7.634;2024-02-26T03:33:38;5.80;1.00
9943;DHT22;5010;45.080;7.634;2024-02-26T03:36:06;5.90;1.00
9943;DHT22;5010;45.080;7.634;2024-02-26T03:38:34;5.80;1.00
9943;DHT22;5010;45.080;7.634;2024-02-26T03:41:02;5.80;1.00
9943;DHT22;5010;45.080;7.634;2024-02-26T03:43:30;5.70;1.00
9943;DHT22;5010;45.080;7.634;2024-02-26T03:45:59;5.70;1.00
9943;DHT22;5010;45.080;7.634;2024-02-26T03:48:27;5.70;1.00
9943;DHT22;5010;45.080;7.634;2024-02-26T03:50:55;5.70;1.00
9943;DHT22;5010;45.080;7.634;2024-02-26T03:53:22;5.70;1.00
9943;DHT22;5010;45.080;7.634;2024-02-26T03:55:50;5.70;1.00
9943;DHT22;5010;45.080;7.634;2024-02-26T03:58:18;5.70;1.00
9943;DHT22;5010;45.080;7.634;2024-02-26T04:00:46;5.60;1.00
9943;DHT22;5010;45.080;7.634;2024-02-26T04:03:16;5.50;1.00
9943;DHT22;5010;45.080;7.634;2024-02-26T04:05:44;5.50;1.00
9943;DHT22;5010;45.080;7.634;2024-02-26T04:08:11;5.60;1.00
9943;DHT22;5010;45.080;7.634;2024-02-26T04:10:39;5.60;1.00
9943;DHT22;5010;45.080;7.634;2024-02-26T04:13:07;5.60;1.00
9943;DHT22;5010;45.080;7.634;2024-02-26T04:15:35;5.70;1.00
9943;DHT22;5010;45.080;7.634;2024-02-26T04:18:03;5.60;1.00
9943;DHT22;5010;45.080;7.634;2024-02-26T04:20:32;5.60;1.00
9943;DHT22;5010;45.080;7.634;2024-02-26T04:23:00;5.50;1.00
9943;DHT22;5010;45.080;7.634;2024-02-26T04:25:28;5.50;1.00
9943;DHT22;5010;45.080;7.634;2024-02-26T04:27:56;5.50;1.00
9943;DHT22;5010;45.080;7.634;2024-02-26T04:30:23;5.40;1.00
9943;DHT22;5010;45.080;7.634;2024-02-26T04:32:51;5.40;1.00
9943;DHT22;5010;45.080;7.634;2024-02-26T04:35:19;5.40;1.00
9943;DHT22;5010;45.080;7.634;2024-02-26T04:37:48;5.50;1.00
9943;DHT22;5010;45.080;7.634;2024-02-26T04:40:16;5.50;1.00
9943;DHT22;5010;45.080;7.634;2024-02-26T04:42:44;5.60;1.00
9943;DHT22;5010;45.080;7.634;2024-02-26T04:45:11;5.60;1.00
9943;DHT22;5010;45.080;7.634;2024-02-26T04:47:39;5.60;1.00
9943;DHT22;5010;45.080;7.634;2024-02-26T04:50:07;5.50;1.00
9943;DHT22;5010;45.080;7.634;2024-02-26T04:52:36;5.50;1.00
9943;DHT22;5010;45.080;7.634;2024-02-26T04:55:05;5.60;1.00
9943;DHT22;5010;45.080;7.634;2024-02-26T04:57:33;5.50;1.00
9943;DHT22;5010;45.080;7.634;2024-02-26T05:00:01;5.50;1.00
9943;DHT22;5010;45.080;7.634;2024-02-26T05:02:29;5.40;1.00
9943;DHT22;5010;45.080;7.634;2024-02-26T07:04:59;4.50;1.00
9943;DHT22;5010;45.080;7.634;2024-02-26T07:07:27;4.50;1.00
9943;DHT22;5010;45.080;7.634;2024-02-26T07:09:55;4.50;1.00
9943;DHT22;5010;45.080;7.634;2024-02-26T07:12:23;4.50;1.00
9943;DHT22;5010;45.080;7.634;2024-02-26T07:14:50;4.50;1.00
9943;DHT22;5010;45.080;7.634;2024-02-26T07:17:18;4.50;1.00
9943;DHT22;5010;45.080;7.634;2024-02-26T09:20:43;3.90;1.00
9943;DHT22;5010;45.080;7.634;2024-02-26T09:33:22;4.00;1.00
9943;DHT22;5010;45.080;7.634;2024-02-26T09:35:51;4.00;1.00
9943;DHT22;5010;45.080;7.634;2024-02-26T09:38:19;3.90;1.00
9943;DHT22;5010;45.080;7.634;2024-02-26T09:40:46;3.90;1.00
9943;DHT22;5010;45.080;7.634;2024-02-26T09:43:14;3.80;1.00
9943;DHT22;5010;45.080;7.634;2024-02-26T09:45:44;3.80;1.00
9943;DHT22;5010;45.080;7.634;2024-02-26T09:48:12;4.00;1.00
9943;DHT22;5010;45.080;7.634;2024-02-26T09:50:43;4.00;1.00
9943;DHT22;5010;45.080;7.634;2024-02-26T09:53:13;4.10;1.00
9943;DHT22;5010;45.080;7.634;2024-02-26T09:55:40;4.00;1.00
9943;DHT22;5010;45.080;7.634;2024-02-26T09:58:09;4.00;1.00
9943;DHT22;5010;45.080;7.634;2024-02-26T10:17:30;4.20;1.00
9943;DHT22;5010;45.080;7.634;2024-02-26T10:20:12;4.10;1.00
9943;DHT22;5010;45.080;7.634;2024-02-26T10:29:26;4.20;1.00
9943;DHT22;5010;45.080;7.634;2024-02-26T10:31:54;4.20;1.00
9943;DHT22;5010;45.080;7.634;2024-02-26T11:11:26;4.10;1.00
9943;DHT22;5010;45.080;7.634;2024-02-26T11:13:54;4.00;1.00
9943;DHT22;5010;45.080;7.634;2024-02-26T11:16:22;4.00;1.00
9943;DHT22;5010;45.080;7.634;2024-02-26T11:18:52;4.20;1.00
9943;DHT22;5010;45.080;7.634;2024-02-26T11:21:22;4.30;1.00
9943;DHT22;5010;45.080;7.634;2024-02-26T11:23:57;4.30;1.00
9943;DHT22;5010;45.080;7.634;2024-02-26T11:26:27;4.20;1.00
9943;DHT22;5010;45.080;7.634;2024-02-26T11:28:55;4.30;1.00
9943;DHT22;5010;45.080;7.634;2024-02-26T11:31:25;4.40;1.00
9943;DHT22;5010;45.080;7.634;2024-02-26T11:33:54;4.50;1.00
9943;DHT22;5010;45.080;7.634;2024-02-26T11:36:24;4.60;1.00
9943;DHT22;5010;45.080;7.634;2024-02-26T11:38:52;4.70;1.00
9943;DHT22;5010;45.080;7.634;2024-02-26T11:41:20;4.80;1.00
9943;DHT22;5010;45.080;7.634;2024-02-26T11:43:53;4.80;1.00
9943;DHT22;5010;45.080;7.634;2024-02-26T11:46:27;4.90;1.00
9943;DHT22;5010;45.080;7.634;2024-02-26T12:09:10;5.10;1.00
9943;DHT22;5010;45.080;7.634;2024-02-26T12:11:39;5.10;1.00
9943;DHT22;5010;45.080;7.634;2024-02-26T12:14:08;5.10;1.00
9943;DHT22;5010;45.080;7.634;2024-02-26T12:16:36;5.10;1.00
9943;DHT22;5010;45.080;7.634;2024-02-26T14:20:29;4.70;1.00
9943;DHT22;5010;45.080;7.634;2024-02-26T14:22:57;4.70;1.00
9943;DHT22;5010;45.080;7.634;2024-02-26T16:25:37;4.20;1.00
9943;DHT22;5010;45.080;7.634;2024-02-26T18:28:24;4.20;1.00
9943;DHT22;5010;45.080;7.634;2024-02-26T18:30:52;4.20;1.00
9943;DHT22;5010;45.080;7.634;2024-02-26T18:33:18;4.30;1.00
9943;DHT22;5010;45.080;7.634;2024-02-26T18:35:45;4.20;1.00
9943;DHT22;5010;45.080;7.634;2024-02-26T18:38:13;4.20;1.00
9943;DHT22;5010;45.080;7.634;2024-02-26T18:40:40;4.20;1.00
9943;DHT22;5010;45.080;7.634;2024-02-26T18:43:08;4.30;1.00
9943;DHT22;5010;45.080;7.634;2024-02-26T18:45:37;4.30;1.00
9943;DHT22;5010;45.080;7.634;2024-02-26T18:48:07;4.20;1.00
9943;DHT22;5010;45.080;7.634;2024-02-26T18:50:34;4.20;1.00
9943;DHT22;5010;45.080;7.634;2024-02-26T18:53:01;4.20;1.00
9943;DHT22;5010;45.080;7.634;2024-02-26T18:55:29;4.20;1.00
9943;DHT22;5010;45.080;7.634;2024-02-26T18:57:58;4.30;1.00
9943;DHT22;5010;45.080;7.634;2024-02-26T19:00:26;4.30;1.00
9943;DHT22;5010;45.080;7.634;2024-02-26T19:02:55;4.30;1.00
9943;DHT22;5010;45.080;7.634;2024-02-26T19:05:23;4.30;1.00
9943;DHT22;5010;45.080;7.634;2024-02-26T19:07:51;4.30;1.00
9943;DHT22;5010;45.080;7.634;2024-02-26T19:10:24;4.40;1.00
9943;DHT22;5010;45.080;7.634;2024-02-26T19:12:52;4.30;1.00
9943;DHT22;5010;45.080;7.634;2024-02-26T19:15:19;4.30;1.00
9943;DHT22;5010;45.080;7.634;2024-02-26T19:17:47;4.40;1.00
9943;DHT22;5010;45.080;7.634;2024-02-26T19:20:17;4.40;1.00
9943;DHT22;5010;45.080;7.634;2024-02-26T19:22:46;4.40;1.00
9943;DHT22;5010;45.080;7.634;2024-02-26T19:25:14;4.40;1.00
9943;DHT22;5010;45.080;7.634;2024-02-26T19:27:42;4.40;1.00
9943;DHT22;5010;45.080;7.634;2024-02-26T19:30:11;4.40;1.00
9943;DHT22;5010;45.080;7.634;2024-02-26T19:32:39;4.40;1.00
9943;DHT22;5010;45.080;7.634;2024-02-26T19:35:06;4.40;1.00
9943;DHT22;5010;45.080;7.634;2024-02-26T19:37:37;4.30;1.00
9943;DHT22;5010;45.080;7.634;2024-02-26T19:40:05;4.20;1.00
9943;DHT22;5010;45.080;7.634;2024-02-26T19:42:33;4.10;1.00
9943;DHT22;5010;45.080;7.634;2024-02-26T19:45:00;4.10;1.00
9943;DHT22;5010;45.080;7.634;2024-02-26T19:47:28;4.10;1.00
9943;DHT22;5010;45.080;7.634;2024-02-26T19:49:55;4.10;1.00
9943;DHT22;5010;45.080;7.634;2024-02-26T19:52:22;4.20;1.00
9943;DHT22;5010;45.080;7.634;2024-02-26T19:54:51;4.30;1.00
9943;DHT22;5010;45.080;7.634;2024-02-26T19:57:18;4.40;1.00
9943;DHT22;5010;45.080;7.634;2024-02-26T19:59:46;4.40;1.00
9943;DHT22;5010;45.080;7.634;2024-02-26T20:02:13;4.50;1.00
9943;DHT22;5010;45.080;7.634;2024-02-26T22:04:31;4.40;1.00
9943;DHT22;5010;45.080;7.634;2024-02-26T22:06:58;4.50;1.00
9943;DHT22;5010;45.080;7.634;2024-02-26T22:09:26;4.50;1.00
9943;DHT22;5010;45.080;7.634;2024-02-26T22:11:53;4.50;1.00
9943;DHT22;5010;45.080;7.634;2024-02-26T22:14:20;4.60;1.00
9943;DHT22;5010;45.080;7.634;2024-02-26T22:16:48;4.60;1.00
9943;DHT22;5010;45.080;7.634;2024-02-26T22:19:15;4.60;1.00
9943;DHT22;5010;45.080;7.634;2024-02-26T22:21:46;4.60;1.00
9943;DHT22;5010;45.080;7.634;2024-02-26T22:24:13;4.50;1.00
9943;DHT22;5010;45.080;7.634;2024-02-26T22:26:41;4.40;1.00
9943;DHT22;5010;45.080;7.634;2024-02-26T22:29:10;4.40;1.00
9943;DHT22;5010;45.080;7.634;2024-02-26T22:31:37;4.40;1.00
9943;DHT22;5010;45.080;7.634;2024-02-26T22:34:04;4.30;1.00
9943;DHT22;5010;45.080;7.634;2024-02-26T22:36:32;4.20;1.00
9943;DHT22;5010;45.080;7.634;2024-02-26T22:39:04;4.20;1.00
9943;DHT22;5010;45.080;7.634;2024-02-26T22:41:33;4.10;1.00
9943;DHT22;5010;45.080;7.634;2024-02-26T22:44:01;4.20;1.00
9943;DHT22;5010;45.080;7.634;2024-02-26T22:46:28;4.30;1.00
9943;DHT22;5010;45.080;7.634;2024-02-26T22:48:56;4.30;1.00
9943;DHT22;5010;45.080;7.634;2024-02-26T22:55:17;4.40;1.00
9943;DHT22;5010;45.080;7.634;2024-02-26T22:57:49;4.30;1.00
9943;DHT22;5010;45.080;7.634;2024-02-26T23:00:17;4.20;1.00
9943;DHT22;5010;45.080;7.634;2024-02-26T23:02:58;4.20;1.00
9943;DHT22;5010;45.080;7.634;2024-02-26T23:05:26;4.20;1.00
9943;DHT22;5010;45.080;7.634;2024-02-26T23:07:55;4.20;1.00
9943;DHT22;5010;45.080;7.634;2024-02-26T23:10:24;4.30;1.00
9943;DHT22;5010;45.080;7.634;2024-02-26T23:12:52;4.30;1.00
9943;DHT22;5010;45.080;7.634;2024-02-26T23:15:20;4.20;1.00
9943;DHT22;5010;45.080;7.634;2024-02-26T23:17:47;4.20;1.00
9943;DHT22;5010;45.080;7.634;2024-02-26T23:20:15;4.30;1.00
9943;DHT22;5010;45.080;7.634;2024-02-26T23:22:43;4.40;1.00
9943;DHT22;5010;45.080;7.634;2024-02-26T23:25:13;4.50;1.00
9943;DHT22;5010;45.080;7.634;2024-02-26T23:27:44;4.50;1.00
9943;DHT22;5010;45.080;7.634;2024-02-26T23:30:13;4.60;1.00
9943;DHT22;5010;45.080;7.634;2024-02-26T23:32:40;4.70;1.00
9943;DHT22;5010;45.080;7.634;2024-02-26T23:35:08;4.70;1.00
9943;DHT22;5010;45.080;7.634;2024-02-26T23:37:36;4.80;1.00
9943;DHT22;5010;45.080;7.634;2024-02-26T23:40:05;4.80;1.00
9943;DHT22;5010;45.080;7.634;2024-02-26T23:42:33;4.60;1.00
9943;DHT22;5010;45.080;7.634;2024-02-26T23:45:02;4.40;1.00
9943;DHT22;5010;45.080;7.634;2024-02-26T23:47:29;4.40;1.00
9943;DHT22;5010;45.080;7.634;2024-02-26T23:49:57;4.40;1.00
9943;DHT22;5010;45.080;7.634;2024-02-26T23:52:24;4.30;1.00
9943;DHT22;5010;45.080;7.634;2024-02-26T23:54:52;4.40;1.00
9943;DHT22;5010;45.080;7.634;2024-02-26T23:57:19;4.40;1.00
9943;DHT22;5010;45.080;7.634;2024-02-26T23:59:46;4.40;1.00
